Time;durP1;ratioP1;P1;durP2;ratioP2;P2;SDS_P1;SDS_P2;PMS_P1;PMS_P2;Temp;Humidity;BMP_temperature;BMP_pressure;BME280_temperature;BME280_humidity;BME280_pressure;Samples;Min_cycle;Max_cycle;Signal;HPM_P1;HPM_P2
2023/10/15 00:00:34;;;;;;;12.10;5.00;;;;;;;17.58;65.85;99766.95;107447;1266;61731;-68
2023/10/15 00:03:03;;;;;;;10.20;4.80;;;;;;;17.57;66.01;99765.89;107465;1262;59593;-67
2023/10/15 00:05:31;;;;;;;9.50;5.10;;;;;;;17.56;66.18;99763.64;107363;1263;72213;-67
2023/10/15 00:07:58;;;;;;;7.20;4.80;;;;;;;17.54;66.16;99760.92;107360;1265;72751;-67
2023/10/15 00:10:27;;;;;;;7.80;4.70;;;;;;;17.50;66.43;99761.06;107301;1266;71491;-70
2023/10/15 00:12:56;;;;;;;8.60;4.90;;;;;;;17.48;66.60;99756.56;107315;1266;61845;-68
2023/10/15 00:15:27;;;;;;;7.60;4.50;;;;;;;17.47;66.73;99753.77;107409;1265;59628;-68
2023/10/15 00:18:00;;;;;;;10.20;4.30;;;;;;;17.45;66.79;99750.59;107285;1269;73081;-69
2023/10/15 00:20:31;;;;;;;10.90;4.60;;;;;;;17.43;67.00;99747.42;107283;1265;73064;-67
2023/10/15 00:23:05;;;;;;;9.60;5.10;;;;;;;17.41;67.06;99744.58;107356;1265;73138;-67
2023/10/15 00:25:41;;;;;;;8.30;4.60;;;;;;;17.39;67.23;99746.02;107329;1265;61676;-67
2023/10/15 00:28:11;;;;;;;8.20;4.90;;;;;;;17.37;67.43;99746.45;107672;1257;59544;-67
2023/10/15 00:30:44;;;;;;;9.00;5.10;;;;;;;17.37;67.46;99742.13;107632;1256;72081;-67
2023/10/15 00:33:12;;;;;;;8.40;4.40;;;;;;;17.35;67.60;99741.01;107759;1257;72821;-68
2023/10/15 00:35:44;;;;;;;7.30;4.20;;;;;;;17.18;68.09;99741.67;107780;1257;71505;-67
2023/10/15 00:38:16;;;;;;;7.40;4.20;;;;;;;17.27;67.95;99740.66;107713;1257;60487;-67
2023/10/15 00:40:52;;;;;;;8.00;4.30;;;;;;;17.30;67.97;99745.11;107585;1257;59527;-66
2023/10/15 00:43:21;;;;;;;9.10;4.60;;;;;;;17.27;67.97;99746.19;107574;1263;73297;-68
2023/10/15 00:45:49;;;;;;;10.70;5.20;;;;;;;17.26;68.11;99748.92;107572;1257;71612;-66
2023/10/15 00:48:24;;;;;;;8.60;5.00;;;;;;;17.24;68.10;99742.91;107712;1263;72699;-67
2023/10/15 00:50:52;;;;;;;9.60;4.30;;;;;;;17.20;68.16;99736.11;107761;1257;60466;-70
2023/10/15 00:53:22;;;;;;;8.40;4.60;;;;;;;17.16;68.16;99738.41;107653;1257;59610;-69
2023/10/15 00:55:55;;;;;;;7.60;4.50;;;;;;;17.11;68.40;99744.52;107631;1257;72899;-68
2023/10/15 01:03:59;;;;;;;7.90;4.40;;;;;;;16.92;68.93;99748.85;107632;1260;60451;-67
2023/10/15 01:09:10;;;;;;;8.90;4.80;;;;;;;16.79;69.40;99743.21;107849;1257;72003;-69
2023/10/15 01:11:44;;;;;;;7.80;4.80;;;;;;;16.72;69.59;99742.59;107709;1257;71265;-71
2023/10/15 01:14:13;;;;;;;8.20;4.70;;;;;;;16.66;69.91;99742.66;107657;1256;72438;-68
2023/10/15 01:16:42;;;;;;;8.40;4.70;;;;;;;16.61;70.07;99743.68;107956;1256;61796;-68
2023/10/15 01:19:18;;;;;;;10.00;4.60;;;;;;;16.56;70.29;99742.97;107666;1257;60159;-68
2023/10/15 01:24:20;;;;;;;9.80;4.90;;;;;;;16.47;70.81;99742.52;107742;1259;72717;-67
2023/10/15 01:26:59;;;;;;;8.60;4.90;;;;;;;16.43;70.93;99738.41;107695;1256;71558;-69
2023/10/15 01:29:28;;;;;;;9.40;4.80;;;;;;;16.39;71.10;99735.55;107719;1259;60465;-68
2023/10/15 01:31:58;;;;;;;10.20;5.60;;;;;;;16.36;71.22;99732.63;107826;1256;59520;-68
2023/10/15 01:34:27;;;;;;;9.00;5.20;;;;;;;16.33;71.40;99734.13;108115;1253;72985;-68
2023/10/15 01:36:59;;;;;;;7.70;4.60;;;;;;;16.29;71.47;99730.47;108132;1253;71471;-69
2023/10/15 01:39:47;;;;;;;7.80;4.90;;;;;;;16.27;71.62;99724.45;108552;1253;70103;-67
2023/10/15 01:45:17;;;;;;;9.30;4.80;;;;;;;16.23;71.88;99719.88;108218;1252;59417;-67
2023/10/15 01:53:04;;;;;;;11.20;5.30;;;;;;;16.11;72.28;99716.40;108116;1253;71202;-67
2023/10/15 01:55:35;;;;;;;6.70;4.50;;;;;;;16.10;72.36;99711.99;108126;1254;61756;-67
2023/10/15 01:58:05;;;;;;;9.10;4.90;;;;;;;16.09;72.37;99715.87;108111;1253;60271;-67
2023/10/15 02:00:43;;;;;;;7.90;4.50;;;;;;;16.07;72.49;99721.02;108152;1253;73069;-68
2023/10/15 02:03:12;;;;;;;8.70;5.10;;;;;;;16.05;72.66;99720.81;108174;1253;72183;-68
2023/10/15 02:05:43;;;;;;;11.20;5.20;;;;;;;16.04;72.72;99718.23;108145;1253;71202;-68
2023/10/15 02:08:23;;;;;;;7.40;4.70;;;;;;;16.03;72.77;99720.98;108103;1255;60494;-67
2023/10/15 02:10:53;;;;;;;6.70;4.90;;;;;;;16.02;72.78;99718.65;108174;1253;59479;-67
2023/10/15 02:13:28;;;;;;;8.00;4.90;;;;;;;16.00;72.87;99716.20;108191;1253;75174;-68
2023/10/15 02:16:08;;;;;;;8.80;5.20;;;;;;;15.98;73.07;99710.57;108030;1253;75040;-69
2023/10/15 02:18:36;;;;;;;6.90;4.70;;;;;;;15.97;73.10;99710.20;108153;1253;72741;-68
2023/10/15 02:21:04;;;;;;;10.10;5.10;;;;;;;15.96;73.19;99709.73;108201;1258;60073;-68
2023/10/15 02:23:33;;;;;;;8.50;4.80;;;;;;;15.95;73.34;99707.64;108069;1253;59021;-68
2023/10/15 02:26:01;;;;;;;7.60;4.70;;;;;;;15.94;73.33;99703.08;108102;1253;71945;-68
2023/10/15 02:28:31;;;;;;;9.20;4.80;;;;;;;15.95;73.48;99700.42;108394;1253;71578;-68
2023/10/15 02:31:10;;;;;;;10.20;5.00;;;;;;;15.96;73.51;99700.40;108284;1255;71378;-67
2023/10/15 02:33:39;;;;;;;7.70;4.50;;;;;;;15.98;73.68;99703.80;108127;1252;60412;-67
2023/10/15 02:36:09;;;;;;;8.50;4.50;;;;;;;16.00;73.69;99704.73;108152;1252;59385;-69
2023/10/15 02:38:52;;;;;;;9.90;5.10;;;;;;;16.01;73.75;99703.38;108156;1253;71818;-68
2023/10/15 02:41:31;;;;;;;8.90;4.70;;;;;;;16.02;73.72;99697.21;108062;1253;71620;-67
2023/10/15 02:43:59;;;;;;;8.70;4.60;;;;;;;16.04;73.75;99692.27;108122;1253;71409;-67
2023/10/15 02:46:36;;;;;;;8.00;4.20;;;;;;;16.04;73.65;99696.70;108173;1252;61723;-67
2023/10/15 02:49:07;;;;;;;7.90;4.70;;;;;;;16.05;73.63;99699.05;108057;1253;60211;-67
2023/10/15 02:51:35;;;;;;;8.10;4.70;;;;;;;16.04;73.58;99696.61;108153;1253;72167;-67
2023/10/15 02:54:18;;;;;;;8.50;4.60;;;;;;;16.04;73.52;99693.66;108157;1253;73947;-68
2023/10/15 02:56:47;;;;;;;8.80;4.90;;;;;;;16.03;73.50;99693.48;108081;1256;72855;-68
2023/10/15 02:59:16;;;;;;;8.20;4.80;;;;;;;16.02;73.49;99691.83;108157;1253;60061;-67
2023/10/15 03:01:46;;;;;;;7.50;4.80;;;;;;;16.01;73.48;99693.24;108201;1252;60023;-67
2023/10/15 03:04:32;;;;;;;9.40;5.00;;;;;;;16.01;73.51;99687.92;108246;1252;71774;-68
2023/10/15 03:07:18;;;;;;;8.20;4.90;;;;;;;16.01;73.50;99690.52;108192;1252;74845;-68
2023/10/15 03:09:48;;;;;;;8.70;4.70;;;;;;;16.00;73.48;99688.81;108142;1254;72788;-68
2023/10/15 03:12:18;;;;;;;9.10;4.90;;;;;;;15.98;73.52;99692.27;108057;1253;61910;-68
2023/10/15 03:14:45;;;;;;;6.20;4.60;;;;;;;15.96;73.54;99695.39;108167;1253;59686;-68
2023/10/15 03:17:14;;;;;;;8.10;4.70;;;;;;;15.92;73.58;99696.14;108079;1253;71803;-68
2023/10/15 03:19:42;;;;;;;7.70;5.00;;;;;;;15.91;73.68;99690.69;108074;1253;72898;-68
2023/10/15 03:22:12;;;;;;;7.80;5.10;;;;;;;15.91;73.72;99690.53;108406;1253;71670;-68
2023/10/15 03:24:43;;;;;;;8.30;5.00;;;;;;;15.90;73.70;99685.17;108165;1253;60492;-69
2023/10/15 03:27:16;;;;;;;6.30;5.00;;;;;;;15.87;73.77;99678.14;108109;1253;60336;-68
2023/10/15 03:29:43;;;;;;;8.20;4.80;;;;;;;15.85;73.79;99673.56;108071;1253;73784;-68
2023/10/15 03:32:12;;;;;;;8.10;4.80;;;;;;;15.84;73.76;99672.36;108143;1253;72386;-67
2023/10/15 03:34:42;;;;;;;6.80;4.60;;;;;;;15.81;73.75;99669.45;108190;1253;72428;-68
2023/10/15 03:37:13;;;;;;;7.40;5.00;;;;;;;15.76;73.84;99671.77;108113;1255;60517;-68
2023/10/15 03:39:55;;;;;;;9.90;5.30;;;;;;;15.71;73.86;99673.16;108142;1253;60315;-69
2023/10/15 03:42:26;;;;;;;7.60;4.70;;;;;;;15.66;73.96;99673.67;108290;1254;73891;-68
2023/10/15 03:44:59;;;;;;;8.50;4.80;;;;;;;15.62;74.00;99677.21;108074;1253;71634;-68
2023/10/15 03:47:27;;;;;;;7.40;5.10;;;;;;;15.55;74.14;99674.38;108089;1258;72455;-68
2023/10/15 03:49:55;;;;;;;7.60;5.00;;;;;;;15.50;74.26;99669.88;108114;1252;61665;-68
2023/10/15 03:52:26;;;;;;;7.20;4.90;;;;;;;15.45;74.39;99669.55;108243;1255;60339;-68
2023/10/15 03:54:55;;;;;;;9.80;5.30;;;;;;;15.40;74.51;99669.08;108093;1253;73843;-68
2023/10/15 03:57:34;;;;;;;10.70;5.40;;;;;;;15.37;74.64;99670.63;108125;1253;72691;-68
2023/10/15 04:03:06;;;;;;;9.60;6.00;;;;;;;15.27;75.05;99666.15;108107;1253;61916;-67
2023/10/15 04:05:35;;;;;;;8.90;5.30;;;;;;;15.22;75.19;99665.15;108498;1252;60349;-68
2023/10/15 04:08:03;;;;;;;9.30;5.30;;;;;;;15.18;75.40;99663.80;108143;1253;74018;-67
2023/10/15 04:10:33;;;;;;;9.70;5.70;;;;;;;15.16;75.53;99666.21;108221;1252;71574;-67
2023/10/15 04:13:01;;;;;;;8.50;5.40;;;;;;;15.13;75.77;99666.17;108128;1253;72718;-68
2023/10/15 04:15:30;;;;;;;8.80;5.30;;;;;;;15.12;75.92;99672.67;108075;1254;61657;-68
2023/10/15 04:17:58;;;;;;;10.10;4.90;;;;;;;15.08;76.08;99674.23;108055;1253;60293;-68
2023/10/15 04:20:35;;;;;;;9.60;6.00;;;;;;;15.07;76.21;99677.75;108107;1253;73867;-69
2023/10/15 04:23:03;;;;;;;8.00;5.80;;;;;;;15.05;76.32;99678.23;108228;1253;71220;-68
2023/10/15 04:25:36;;;;;;;8.30;5.10;;;;;;;15.04;76.35;99678.79;108249;1253;72796;-67
2023/10/15 04:28:14;;;;;;;9.80;5.80;;;;;;;15.02;76.39;99678.77;108169;1254;60365;-69
2023/10/15 04:30:42;;;;;;;8.70;5.40;;;;;;;14.99;76.49;99673.38;108085;1252;60416;-69
2023/10/15 04:33:10;;;;;;;8.80;5.50;;;;;;;14.98;76.70;99671.33;108085;1253;73913;-69
2023/10/15 04:35:40;;;;;;;8.30;5.30;;;;;;;14.99;76.73;99669.45;108159;1253;71590;-68
2023/10/15 04:38:09;;;;;;;7.80;5.40;;;;;;;14.97;76.77;99663.81;108156;1254;72774;-69
2023/10/15 04:43:25;;;;;;;8.40;5.60;;;;;;;14.95;76.98;99659.50;108159;1253;60427;-69
2023/10/15 04:45:57;;;;;;;9.40;5.70;;;;;;;14.92;77.16;99661.77;108173;1253;72593;-68
2023/10/15 04:48:29;;;;;;;7.30;5.20;;;;;;;14.91;77.26;99662.94;108166;1253;71455;-67
2023/10/15 04:51:02;;;;;;;8.30;5.20;;;;;;;14.89;77.43;99671.10;107991;1258;71740;-69
2023/10/15 04:53:30;;;;;;;8.40;5.20;;;;;;;14.88;77.63;99674.84;108012;1253;61897;-67
2023/10/15 04:56:00;;;;;;;9.30;5.70;;;;;;;14.88;77.82;99679.05;108066;1253;59655;-67
2023/10/15 04:58:29;;;;;;;10.50;5.20;;;;;;;14.89;78.01;99680.02;108130;1253;73360;-68
2023/10/15 05:00:58;;;;;;;10.10;6.20;;;;;;;14.91;78.09;99681.81;108177;1252;71448;-68
2023/10/15 05:03:26;;;;;;;7.40;5.60;;;;;;;14.95;78.16;99682.25;108149;1252;71504;-67
2023/10/15 05:05:59;;;;;;;7.00;5.50;;;;;;;14.98;78.23;99677.42;108082;1254;60423;-68
2023/10/15 05:08:27;;;;;;;9.00;6.00;;;;;;;15.02;78.31;99678.90;108043;1253;60305;-68
2023/10/15 05:10:54;;;;;;;8.10;5.00;;;;;;;15.05;78.39;99677.73;107995;1253;72577;-67
2023/10/15 05:13:24;;;;;;;7.30;5.40;;;;;;;15.08;78.42;99681.44;108102;1258;72748;-68
2023/10/15 05:15:52;;;;;;;9.80;5.70;;;;;;;15.10;78.40;99680.77;108047;1256;71411;-68
2023/10/15 05:18:20;;;;;;;7.70;5.10;;;;;;;15.13;78.49;99675.28;107992;1253;60387;-68
2023/10/15 05:20:48;;;;;;;8.20;5.30;;;;;;;15.14;78.51;99677.15;108354;1253;60200;-68
2023/10/15 05:23:17;;;;;;;9.20;5.60;;;;;;;15.15;78.55;99677.64;108112;1253;74012;-68
2023/10/15 05:25:45;;;;;;;8.60;5.60;;;;;;;15.17;78.62;99682.49;108047;1253;71724;-69
2023/10/15 05:28:14;;;;;;;8.80;5.20;;;;;;;15.19;78.72;99685.39;108099;1253;72906;-68
2023/10/15 05:30:42;;;;;;;10.10;5.50;;;;;;;15.22;78.65;99687.36;108135;1257;61641;-66
2023/10/15 05:33:10;;;;;;;8.30;5.90;;;;;;;15.27;78.69;99691.11;108132;1252;60429;-68
2023/10/15 05:35:47;;;;;;;8.00;5.10;;;;;;;15.32;78.63;99694.34;107911;1253;73862;-68
2023/10/15 05:38:16;;;;;;;9.00;5.30;;;;;;;15.36;78.67;99696.70;107905;1253;71619;-68
2023/10/15 05:40:45;;;;;;;6.90;5.00;;;;;;;15.40;78.59;99699.70;108125;1253;71699;-69
2023/10/15 05:43:13;;;;;;;8.50;5.10;;;;;;;15.43;78.55;99699.90;108168;1253;61717;-69
2023/10/15 05:45:41;;;;;;;7.80;5.20;;;;;;;15.47;78.55;99702.48;108152;1253;60528;-68
2023/10/15 05:48:09;;;;;;;7.80;5.30;;;;;;;15.50;78.55;99707.73;107991;1253;73498;-68
2023/10/15 05:50:37;;;;;;;8.30;5.50;;;;;;;15.53;78.38;99703.73;108142;1253;72839;-68
2023/10/15 05:53:06;;;;;;;7.80;5.40;;;;;;;15.56;78.32;99700.55;108201;1253;71445;-68
2023/10/15 05:55:34;;;;;;;6.80;4.80;;;;;;;15.61;78.23;99703.77;108180;1253;61651;-68
2023/10/15 05:58:02;;;;;;;8.70;5.00;;;;;;;15.65;78.11;99701.89;108195;1252;59269;-68
2023/10/15 06:00:29;;;;;;;11.40;5.00;;;;;;;15.71;78.01;99704.98;108175;1252;73851;-67
2023/10/15 06:02:57;;;;;;;8.30;5.10;;;;;;;15.78;77.93;99703.93;108238;1253;72693;-69
2023/10/15 06:05:25;;;;;;;7.60;5.20;;;;;;;15.79;77.64;99706.91;108130;1253;72936;-68
2023/10/15 06:07:54;;;;;;;9.30;4.90;;;;;;;15.81;77.70;99709.08;108123;1254;61722;-68
2023/10/15 06:10:22;;;;;;;8.90;5.40;;;;;;;15.85;77.46;99705.08;108169;1252;60075;-67
2023/10/15 06:12:50;;;;;;;8.20;5.60;;;;;;;15.90;77.29;99701.48;108203;1253;72861;-69
2023/10/15 06:15:18;;;;;;;8.40;5.00;;;;;;;15.96;77.22;99698.56;108137;1253;71409;-68
2023/10/15 06:17:50;;;;;;;8.30;5.70;;;;;;;16.02;76.99;99698.52;108187;1253;72720;-71
2023/10/15 06:20:19;;;;;;;10.90;5.90;;;;;;;16.06;76.72;99691.30;108167;1253;60454;-69
2023/10/15 06:22:47;;;;;;;12.00;6.10;;;;;;;16.11;76.47;99697.85;108151;1253;60330;-68
2023/10/15 06:25:18;;;;;;;8.90;5.90;;;;;;;16.16;76.31;99703.32;108201;1253;73840;-68
2023/10/15 06:27:47;;;;;;;8.60;5.90;;;;;;;16.21;76.06;99700.53;108222;1253;71423;-68
2023/10/15 06:30:15;;;;;;;8.90;5.70;;;;;;;16.24;75.66;99697.91;108124;1254;71403;-68
2023/10/15 06:32:43;;;;;;;9.10;6.30;;;;;;;16.26;75.41;99702.09;108132;1254;61735;-68
2023/10/15 06:35:18;;;;;;;10.10;6.60;;;;;;;16.32;75.33;99707.50;108221;1253;60413;-69
2023/10/15 06:37:50;;;;;;;10.60;6.20;;;;;;;16.38;75.02;99707.78;108118;1253;73914;-69
2023/10/15 06:40:18;;;;;;;9.40;6.20;;;;;;;16.46;74.81;99714.47;108155;1253;72932;-69
2023/10/15 06:42:51;;;;;;;11.30;6.00;;;;;;;16.53;74.38;99716.16;108132;1253;71103;-68
2023/10/15 06:45:20;;;;;;;9.90;6.50;;;;;;;16.61;73.95;99716.29;108156;1252;61745;-68
2023/10/15 06:47:52;;;;;;;11.30;6.40;;;;;;;16.68;73.55;99714.52;108206;1253;60308;-68
2023/10/15 06:50:22;;;;;;;12.40;7.10;;;;;;;16.74;72.83;99708.14;108161;1253;72044;-68
2023/10/15 06:52:54;;;;;;;10.70;7.10;;;;;;;16.75;72.18;99706.50;108221;1253;71552;-68
2023/10/15 06:55:22;;;;;;;12.80;7.50;;;;;;;16.85;71.58;99705.26;108136;1253;72478;-69
2023/10/15 06:57:50;;;;;;;11.50;7.50;;;;;;;17.06;70.81;99705.53;108193;1253;60915;-68
2023/10/15 07:00:23;;;;;;;11.60;7.60;;;;;;;17.00;70.71;99699.88;108164;1253;60316;-68
2023/10/15 07:02:52;;;;;;;14.10;7.80;;;;;;;17.08;70.26;99699.38;108294;1253;73834;-69
2023/10/15 07:05:23;;;;;;;12.30;7.80;;;;;;;17.14;69.93;99694.92;108146;1253;73542;-68
2023/10/15 07:07:52;;;;;;;15.50;8.10;;;;;;;17.24;69.44;99696.10;108272;1253;71457;-68
2023/10/15 07:10:21;;;;;;;11.90;8.10;;;;;;;17.29;69.19;99694.15;108141;1254;60613;-68
2023/10/15 07:12:52;;;;;;;11.90;8.00;;;;;;;17.35;68.96;99696.51;108101;1253;60273;-68
2023/10/15 07:15:20;;;;;;;13.40;7.60;;;;;;;17.37;68.51;99697.33;108082;1253;73886;-67
2023/10/15 07:17:51;;;;;;;13.80;7.70;;;;;;;17.36;68.38;99699.99;108000;1253;71737;-68
2023/10/15 07:20:24;;;;;;;14.50;8.80;;;;;;;17.36;68.24;99698.00;108092;1253;72684;-68
2023/10/15 07:22:53;;;;;;;10.70;7.50;;;;;;;17.38;68.03;99701.39;108151;1253;61658;-68
2023/10/15 07:25:22;;;;;;;17.30;8.30;;;;;;;17.37;67.96;99703.58;107999;1253;60450;-68
2023/10/15 07:27:49;;;;;;;14.90;9.40;;;;;;;17.36;67.97;99703.23;108037;1253;73940;-68
2023/10/15 07:30:19;;;;;;;12.50;8.90;;;;;;;17.38;68.01;99703.56;108074;1253;71379;-68
2023/10/15 07:32:59;;;;;;;15.40;9.40;;;;;;;17.38;67.79;99700.60;108101;1253;72491;-68
2023/10/15 07:35:28;;;;;;;12.10;8.80;;;;;;;17.37;67.63;99700.12;107932;1253;61885;-67
2023/10/15 07:37:56;;;;;;;14.70;9.00;;;;;;;17.39;67.65;99700.88;108072;1253;60306;-68
2023/10/15 07:40:27;;;;;;;11.70;8.80;;;;;;;17.44;67.67;99697.17;108022;1253;73862;-68
2023/10/15 07:42:59;;;;;;;15.40;9.40;;;;;;;17.53;67.61;99700.61;108023;1253;72796;-67
2023/10/15 07:45:30;;;;;;;13.70;9.20;;;;;;;17.63;67.54;99699.77;108089;1253;71413;-69
2023/10/15 07:47:59;;;;;;;13.60;8.80;;;;;;;17.70;67.26;99701.52;108152;1252;60628;-69
2023/10/15 07:50:33;;;;;;;12.90;8.50;;;;;;;17.75;66.89;99698.10;108149;1252;60485;-69
2023/10/15 07:53:02;;;;;;;11.40;8.40;;;;;;;17.78;66.51;99700.73;108277;1253;71895;-69
2023/10/15 07:55:31;;;;;;;13.70;9.10;;;;;;;17.75;66.14;99704.35;108155;1253;72906;-70
2023/10/15 07:57:58;;;;;;;13.00;8.40;;;;;;;17.70;66.04;99707.77;108171;1253;72655;-68
2023/10/15 08:00:29;;;;;;;13.70;8.90;;;;;;;17.69;66.23;99708.35;108169;1252;61827;-68
2023/10/15 08:02:58;;;;;;;12.30;8.10;;;;;;;17.70;66.11;99710.41;108189;1252;59297;-68
2023/10/15 08:05:34;;;;;;;14.10;8.30;;;;;;;17.73;66.21;99712.45;108271;1253;75642;-68
2023/10/15 08:08:03;;;;;;;13.20;8.60;;;;;;;17.75;66.20;99716.49;108231;1253;73917;-69
2023/10/15 08:10:34;;;;;;;13.10;8.20;;;;;;;17.77;66.02;99716.64;108132;1252;72892;-69
2023/10/15 08:13:06;;;;;;;;;;;;;;;17.72;65.92;99722.21;108281;1253;62362;-67
2023/10/15 08:15:34;;;;;;;13.40;8.10;;;;;;;17.67;65.96;99720.14;108110;1253;60459;-67
2023/10/15 08:18:03;;;;;;;12.00;7.70;;;;;;;17.62;66.11;99721.11;108209;1252;72633;-68
2023/10/15 08:20:31;;;;;;;11.40;7.60;;;;;;;17.60;66.18;99719.41;108165;1253;74736;-68
2023/10/15 08:23:00;;;;;;;15.10;8.40;;;;;;;17.60;66.22;99720.48;108199;1253;72126;-69
2023/10/15 08:25:31;;;;;;;14.60;8.40;;;;;;;17.61;66.33;99720.08;108157;1252;62648;-68
2023/10/15 08:28:02;;;;;;;15.70;8.20;;;;;;;17.61;66.26;99723.75;108262;1251;60408;-68
2023/10/15 08:30:41;;;;;;;13.50;7.80;;;;;;;17.58;66.20;99724.66;108102;1258;74877;-68
2023/10/15 08:33:19;;;;;;;12.10;7.80;;;;;;;17.58;66.23;99727.30;108134;1253;71482;-68
2023/10/15 08:35:48;;;;;;;9.80;6.90;;;;;;;17.57;66.23;99726.20;108141;1252;74915;-69
2023/10/15 08:38:29;;;;;;;9.40;7.20;;;;;;;17.57;66.19;99719.33;108121;1253;60377;-67
2023/10/15 08:41:18;;;;;;;12.90;7.60;;;;;;;17.59;66.15;99710.13;108264;1252;60210;-68
2023/10/15 08:43:46;;;;;;;15.30;8.20;;;;;;;17.62;66.27;99715.17;107895;1253;75364;-68
2023/10/15 08:46:27;;;;;;;12.40;7.20;;;;;;;17.67;66.20;99719.23;108105;1253;72713;-68
2023/10/15 08:49:22;;;;;;;12.20;7.10;;;;;;;17.68;65.88;99728.63;108283;1256;72710;-69
2023/10/15 08:52:26;;;;;;;13.90;7.90;;;;;;;17.66;65.72;99727.23;108180;1255;60546;-67
2023/10/15 08:55:09;;;;;;;11.50;7.90;;;;;;;17.65;65.67;99729.88;108071;1252;61360;-68
2023/10/15 08:58:25;;;;;;;13.30;7.50;;;;;;;17.64;65.65;99733.54;108082;1252;73833;-68
2023/10/15 09:00:57;;;;;;;11.00;7.30;;;;;;;17.65;65.85;99736.81;108145;1253;73267;-67
2023/10/15 09:03:24;;;;;;;11.80;7.20;;;;;;;17.64;65.77;99737.79;108130;1253;72664;-67
2023/10/15 09:05:52;;;;;;;11.10;7.10;;;;;;;17.63;65.73;99733.79;108144;1253;60895;-67
2023/10/15 09:08:20;;;;;;;12.00;7.40;;;;;;;17.60;65.75;99737.07;108248;1253;60402;-69
2023/10/15 09:10:51;;;;;;;10.80;6.90;;;;;;;17.61;65.80;99734.44;108164;1252;73806;-68
2023/10/15 09:13:21;;;;;;;10.50;7.50;;;;;;;17.61;65.76;99738.52;108127;1253;71405;-71
2023/10/15 09:15:52;;;;;;;10.70;7.20;;;;;;;17.60;65.92;99744.02;108054;1253;72892;-68
2023/10/15 09:18:20;;;;;;;10.60;7.20;;;;;;;17.59;65.99;99741.74;107986;1256;61719;-70
2023/10/15 09:20:51;;;;;;;10.40;7.30;;;;;;;17.60;66.01;99739.61;108012;1253;60413;-69
2023/10/15 09:23:23;;;;;;;13.60;7.40;;;;;;;17.63;65.99;99738.98;108104;1253;73920;-68
2023/10/15 09:25:52;;;;;;;10.80;7.30;;;;;;;17.67;66.05;99740.14;108124;1253;72414;-70
2023/10/15 09:28:20;;;;;;;13.60;7.70;;;;;;;17.70;65.87;99741.52;108194;1253;75155;-69
2023/10/15 09:30:47;;;;;;;12.30;8.20;;;;;;;17.72;65.75;99747.91;108060;1253;61779;-69
2023/10/15 09:33:17;;;;;;;12.40;7.40;;;;;;;17.71;65.77;99754.29;107947;1253;61068;-67
2023/10/15 09:35:45;;;;;;;12.40;7.90;;;;;;;17.71;65.63;99750.34;108151;1258;74718;-69
2023/10/15 09:38:14;;;;;;;14.70;7.70;;;;;;;17.66;65.70;99756.15;108084;1253;71906;-69
2023/10/15 09:40:45;;;;;;;10.30;7.20;;;;;;;17.58;65.69;99756.77;108062;1253;71386;-68
2023/10/15 09:43:13;;;;;;;14.60;7.90;;;;;;;17.51;65.93;99758.77;108130;1253;60702;-68
2023/10/15 09:45:42;;;;;;;13.10;7.60;;;;;;;17.45;66.11;99754.21;108013;1253;60984;-68
2023/10/15 09:48:09;;;;;;;11.30;8.00;;;;;;;17.46;66.33;99756.71;108112;1253;73910;-69
2023/10/15 09:50:41;;;;;;;10.90;7.60;;;;;;;17.47;66.40;99758.03;107998;1253;75164;-69
2023/10/15 09:53:09;;;;;;;11.00;7.70;;;;;;;17.51;66.51;99756.30;107903;1253;71686;-68
2023/10/15 09:55:38;;;;;;;10.20;7.90;;;;;;;17.51;66.59;99750.38;107893;1253;60664;-69
2023/10/15 09:58:06;;;;;;;13.30;8.90;;;;;;;17.55;66.77;99753.16;108535;1253;60425;-69
2023/10/15 10:03:47;;;;;;;11.20;8.60;;;;;;;17.56;66.78;99754.27;108085;1253;72769;-69
2023/10/15 10:06:31;;;;;;;12.30;7.80;;;;;;;17.57;66.79;99752.46;108024;1253;71427;-69
2023/10/15 10:09:28;;;;;;;11.00;7.90;;;;;;;17.55;66.81;99751.30;108008;1254;60949;-69
2023/10/15 10:12:07;;;;;;;12.70;8.60;;;;;;;17.51;66.98;99755.79;108069;1253;60444;-69
2023/10/15 10:14:47;;;;;;;11.70;8.80;;;;;;;17.51;67.10;99757.53;108114;1254;73871;-68
2023/10/15 10:17:16;;;;;;;11.80;8.60;;;;;;;17.55;67.22;99759.32;108053;1253;72933;-69
2023/10/15 10:19:48;;;;;;;11.90;8.60;;;;;;;17.58;67.18;99760.88;108065;1253;71168;-69
2023/10/15 10:22:23;;;;;;;13.70;8.50;;;;;;;17.61;67.17;99756.92;108201;1253;61692;-69
2023/10/15 10:24:53;;;;;;;11.10;7.70;;;;;;;17.64;67.26;99758.98;108114;1253;61207;-69
2023/10/15 10:27:21;;;;;;;11.90;7.10;;;;;;;17.68;67.24;99761.70;108213;1253;73813;-70
2023/10/15 10:29:55;;;;;;;9.10;6.60;;;;;;;17.70;66.89;99761.15;108032;1253;73087;-68
2023/10/15 10:32:26;;;;;;;10.90;6.60;;;;;;;17.67;66.75;99753.48;108049;1253;72480;-67
2023/10/15 10:35:20;;;;;;;9.90;6.60;;;;;;;17.61;66.64;99755.73;108030;1253;61653;-69
2023/10/15 10:38:01;;;;;;;9.40;5.80;;;;;;;17.57;66.50;99759.48;108037;1253;60184;-68
2023/10/15 10:40:47;;;;;;;7.80;5.80;;;;;;;17.52;66.62;99757.14;108150;1252;72633;-68
2023/10/15 10:43:26;;;;;;;8.80;5.50;;;;;;;17.49;66.78;99759.77;108093;1253;72778;-68
2023/10/15 10:46:01;;;;;;;7.20;5.60;;;;;;;17.49;66.91;99768.42;108082;1253;72773;-68
2023/10/15 10:48:33;;;;;;;7.20;5.10;;;;;;;17.51;66.90;99775.07;108052;1253;60947;-68
2023/10/15 10:51:21;;;;;;;7.50;5.90;;;;;;;17.51;66.73;99771.34;108039;1253;60228;-68
2023/10/15 10:53:55;;;;;;;9.40;6.00;;;;;;;17.48;66.67;99767.84;108006;1253;73810;-69
2023/10/15 10:56:38;;;;;;;9.10;6.00;;;;;;;17.45;66.63;99762.38;108099;1253;72756;-69
2023/10/15 10:59:24;;;;;;;7.20;5.30;;;;;;;17.43;66.73;99763.92;107990;1256;72468;-69
2023/10/15 11:01:51;;;;;;;7.50;5.80;;;;;;;17.40;66.63;99765.67;107982;1253;60382;-69
2023/10/15 11:04:19;;;;;;;9.60;6.00;;;;;;;17.38;66.63;99764.31;108022;1253;60336;-69
2023/10/15 11:06:48;;;;;;;8.90;5.90;;;;;;;17.35;66.63;99766.06;107990;1253;75782;-69
2023/10/15 11:09:16;;;;;;;7.30;5.20;;;;;;;17.33;66.55;99766.59;108020;1253;74238;-68
2023/10/15 11:11:45;;;;;;;6.40;5.30;;;;;;;17.29;66.46;99767.44;108036;1253;72749;-69
2023/10/15 11:14:14;;;;;;;6.90;5.50;;;;;;;17.28;66.50;99766.36;108085;1253;60580;-70
2023/10/15 11:16:42;;;;;;;8.60;5.10;;;;;;;17.26;66.47;99775.23;108048;1253;61079;-70
2023/10/15 11:19:18;;;;;;;8.30;5.50;;;;;;;17.24;66.48;99773.82;108121;1258;73876;-67
2023/10/15 11:21:46;;;;;;;7.40;5.30;;;;;;;17.22;66.45;99774.46;107852;1253;266179;-70
2023/10/15 11:24:13;;;;;;;6.90;5.40;;;;;;;17.18;66.34;99767.80;108012;1258;72727;-68
2023/10/15 11:26:45;;;;;;;7.80;5.60;;;;;;;17.12;66.46;99768.92;108086;1253;61771;-69
2023/10/15 11:29:22;;;;;;;8.70;6.50;;;;;;;17.05;66.63;99770.39;108180;1253;59548;-69
2023/10/15 11:31:52;;;;;;;8.90;5.70;;;;;;;17.02;66.73;99771.98;108148;1253;73081;-69
2023/10/15 11:34:22;;;;;;;8.50;6.20;;;;;;;17.00;66.90;99771.84;107975;1253;71165;-69
2023/10/15 11:36:52;;;;;;;7.10;5.10;;;;;;;16.98;67.03;99770.34;108104;1253;70402;-69
2023/10/15 11:39:25;;;;;;;5.90;4.10;;;;;;;16.96;66.86;99774.70;108054;1254;60480;-69
2023/10/15 11:41:56;;;;;;;5.60;3.90;;;;;;;16.91;66.33;99773.79;107982;1253;59334;-68
2023/10/15 11:44:31;;;;;;;5.00;3.40;;;;;;;16.87;65.69;99772.18;108045;1253;73953;-69
2023/10/15 11:47:08;;;;;;;6.50;3.90;;;;;;;16.85;65.10;99774.41;108078;1253;71273;-69
2023/10/15 11:49:38;;;;;;;6.20;2.90;;;;;;;16.83;64.80;99775.55;108038;1253;71347;-69
2023/10/15 11:52:05;;;;;;;4.80;2.80;;;;;;;16.81;64.33;99776.20;107788;1256;61897;-69
2023/10/15 11:54:35;;;;;;;4.50;2.40;;;;;;;16.80;63.98;99784.39;108047;1253;60480;-68
2023/10/15 11:57:04;;;;;;;5.10;2.60;;;;;;;16.76;63.69;99782.83;108085;1253;73870;-69
2023/10/15 11:59:32;;;;;;;4.60;2.70;;;;;;;16.72;63.58;99781.17;108056;1253;72483;-68
2023/10/15 12:02:01;;;;;;;5.30;2.40;;;;;;;16.69;63.63;99774.84;108045;1259;71954;-68
2023/10/15 12:04:29;;;;;;;4.60;2.70;;;;;;;16.65;63.69;99770.19;108040;1253;60473;-68
2023/10/15 12:06:57;;;;;;;6.10;2.70;;;;;;;16.63;63.77;99770.14;108003;1253;60270;-68
2023/10/15 12:09:24;;;;;;;5.70;3.20;;;;;;;16.62;63.88;99770.12;108107;1253;72568;-68